Alum Bank, Pennsylvania
Current Conditions -  °F | °C
As of 11:54 PM on Saturday 25 Oct 2014 (Local Time) from KJST Reporting Station
Clear Clear  
Wind Chill: 55°   Ceiling: Unl
Heat Index: 55°   Visibility: 10mi
Dew Point: 45°   Wind: 16mph
Humidity: 69%   Direction: 280°W
Pressure: 29.73"   Gusts: 24mph
Location:  40.18°N, 78.61°W
Report Text: KJST 260354Z AUTO 28014G21KT 10SM CLR 13/07 A2973 RMK AO2 SLP066 T01280072
Loading
Personal Weather Stations






























Interactive Weather Map
Tropical Storm Tracking
New forecast layout! Learn more

10-Day Weather Forecast

Advertisements
Track Severe Weather on mobile